Home > Products > Valid Products > TAF

000
FTUS45 KSLC 241120
TAFOGD
TAF
KOGD 241120Z 2412/2512 VRB05KT P6SM SCT080 BKN110
     FM241900 23011KT P6SM SCT080 BKN100
     FM250200 17007KT P6SM SCT060 BKN090=



000
FTUS45 KSLC 241120
TAFSLC
TAF
KSLC 241120Z 2412/2518 16007KT P6SM SCT080 BKN110
     FM241700 18010G15KT P6SM SCT070 BKN100
     FM242200 31009KT P6SM SCT070 BKN100
     FM250300 15008KT P6SM SCT060 BKN090=



000
FTUS45 KSLC 241120
TAFPVU
TAF
KPVU 241120Z 2412/2512 15007KT P6SM SCT070 BKN100
      AMD LTD TO CLD VIS AND WIND=



000
FTUS45 KSLC 241120
TAFLGU
TAF
KLGU 241120Z 2412/2512 VRB04KT P6SM SCT070 BKN110
     FM242100 22010G16KT P6SM SCT060 BKN100
     FM250100 VRB05KT P6SM SCT060 BKN100=



000
FTUS45 KSLC 241120
TAFSGU
TAF
KSGU 241120Z 2412/2512 15007KT P6SM SCT200
     FM241600 23010KT P6SM FEW070 SCT120
     FM242000 25016G23KT P6SM FEW070 SCT120
     FM250300 22010KT P6SM FEW070 SCT120
     FM250600 11007KT P6SM SCT150
      AMD LTD TO CLD VIS AND WIND=



000
FTUS45 KSLC 241120
TAFENV
TAF
KENV 241120Z 2412/2512 VRB05KT P6SM SCT080 BKN120
     FM241600 12009KT P6SM VCSH SCT060 BKN100
     FM250100 32009KT P6SM SCT060 BKN100
      AMD LTD TO CLD VIS AND WIND=



000
FTUS45 KSLC 241120
TAFBCE
TAF
KBCE 241120Z 2412/2512 25007KT P6SM SCT150
     FM241600 15010KT P6SM FEW060 SCT100
     FM241900 19015G23KT P6SM SCT060 SCT100
     FM250200 24008KT P6SM FEW060 SCT100=



000
FTUS45 KSLC 241120
TAFCDC
TAF
KCDC 241120Z 2412/2512 18007KT P6SM SCT200
     FM241700 21017G25KT P6SM FEW070 SCT120
     FM250200 19009KT P6SM SCT120=



000
FTUS45 KSLC 240906 AAA
TAFSLC
TAF AMD
KSLC 240906Z 2409/2512 16007KT P6SM FEW080 SCT150
     FM241700 18010G15KT P6SM SCT080 BKN120
     FM242200 31009KT P6SM SCT080 BKN120
     FM250300 15008KT P6SM SCT070 BKN100=



000
FTUS45 KSLC 240532
TAFOGD
TAF
KOGD 240532Z 2406/2506 VRB05KT P6SM SCT090 BKN120
     FM240900 17007KT P6SM SCT080 BKN110
     FM241900 23011KT P6SM SCT080 BKN100
     FM250200 17007KT P6SM SCT070 BKN100=



000
FTUS45 KSLC 240532
TAFPVU
TAF
KPVU 240532Z 2406/2506 31009KT P6SM SCT090 BKN150
     FM240800 VRB05KT P6SM SCT090 BKN120
      AMD LTD TO CLD VIS AND WIND=



000
FTUS45 KSLC 240532
TAFENV
TAF
KENV 240532Z 2406/2506 35006KT P6SM SCT080 BKN120
     FM241600 12007KT P6SM VCSH SCT060 BKN100
     FM250100 32009KT P6SM SCT060 BKN100
      AMD LTD TO CLD VIS AND WIND=



000
FTUS45 KSLC 240532
TAFLGU
TAF
KLGU 240532Z 2406/2506 VRB04KT P6SM SCT090 BKN120
     FM242100 22010G16KT P6SM SCT080 BKN120
     FM250100 VRB05KT P6SM SCT070 BKN110=



000
FTUS45 KSLC 240532
TAFBCE
TAF
KBCE 240532Z 2406/2506 25010KT P6SM SCT150
     FM241600 15010KT P6SM SCT100
     FM241800 18016G24KT P6SM SCT100
     FM250200 24008KT P6SM SCT100=



000
FTUS45 KSLC 240532
TAFSGU
TAF
KSGU 240532Z 2406/2506 15007KT P6SM SCT200
     FM241600 23010KT P6SM SCT060 SCT120
     FM242000 25016G23KT P6SM SCT070 SCT120
     FM250300 22010KT P6SM SCT070 SCT120
      AMD LTD TO CLD VIS AND WIND=



000
FTUS45 KSLC 240532
TAFCDC
TAF
KCDC 240532Z 2406/2506 18007KT P6SM SCT150
     FM241700 21016G25KT P6SM SCT070 BKN120
     FM250200 20009KT P6SM SCT120=



000
FTUS45 KSLC 240532
TAFSLC
TAF
KSLC 240532Z 2406/2512 16007KT P6SM FEW080 SCT150
     FM241700 18011G18KT P6SM SCT080 BKN120
     FM250300 15008KT P6SM SCT070 BKN100=



000
FTUS45 KSLC 240052 AAA
TAFBCE
TAF AMD
KBCE 240052Z 2401/2424 22012G20KT P6SM FEW080 SCT150
     FM240200 25010KT P6SM SCT150
     FM241400 17010KT P6SM SCT100
     FM241700 18016G27KT P6SM SCT100=



000
FTUS45 KSLC 232225 AAA
TAFPVU
TAF AMD
KPVU 232225Z 2322/2418 29010KT P6SM SCT080 BKN120
      TEMPO 2322/2324 31015G20KT
     FM240400 13005KT P6SM SCT090 BKN120
     FM241700 20010KT P6SM SCT080 BKN120
      AMD LTD TO CLD VIS AND WIND=



000
FTUS45 KSLC 232044 AAA
TAFSLC
TAF AMD
KSLC 232044Z 2321/2424 34008KT P6SM SCT080 BKN120
      TEMPO 2321/2323 25012KT
     FM240400 16007KT P6SM SCT090 BKN120
     FM241700 20012G20KT P6SM SCT100
     FM242000 22020G28KT P6SM VCSH SCT100=



000
FTUS45 KSLC 231324 AAA
TAFSLC
TAF AMD
KSLC 231324Z 2313/2418 18005KT P6SM SCT100 BKN150
     FM231700 33008KT P6SM SCT080 BKN110
     FM240400 16007KT P6SM SCT090 BKN120=



000
FTUS45 KSLC 231120
TAFSLC
TAF
KSLC 231120Z 2312/2418 33004KT P6SM SCT100 BKN150
     FM231900 33008KT P6SM SCT080 BKN110
     FM240400 16007KT P6SM SCT090 BKN120=



000
FTUS45 KSLC 231120
TAFOGD
TAF
KOGD 231120Z 2312/2412 VRB05KT P6SM SCT100 BKN150
     FM231800 29008KT P6SM SCT070 BKN110
     FM240200 16007KT P6SM SCT090 BKN120=



000
FTUS45 KSLC 231120
TAFLGU
TAF
KLGU 231120Z 2312/2412 VRB05KT P6SM FEW060 SCT120
     FM231800 VRB05KT P6SM VCSH SCT070 BKN100
     FM240300 VRB04KT P6SM SCT090 BKN120=



000
FTUS45 KSLC 231120
TAFSGU
TAF
KSGU 231120Z 2312/2412 VRB05KT P6SM SCT200
     FM232000 24009KT P6SM SCT200
     FM240400 13007KT P6SM SCT200
      AMD LTD TO CLD VIS AND WIND=



000
FTUS45 KSLC 231120
TAFPVU
TAF
KPVU 231120Z 2312/2412 VRB04KT P6SM SCT100 BKN150
     FM232000 29007KT P6SM SCT080 BKN120
     FM240400 VRB04KT P6SM SCT090 BKN120
      AMD LTD TO CLD VIS AND WIND=



000
FTUS45 KSLC 231120
TAFCDC
TAF
KCDC 231120Z 2312/2412 VRB05KT P6SM FEW120 SCT200
     FM231800 22010G17KT P6SM FEW090 SCT200
     FM240200 19007KT P6SM SCT200=



000
FTUS45 KSLC 231120
TAFBCE
TAF
KBCE 231120Z 2312/2412 27007KT P6SM BKN150
     FM231700 16010G17KT P6SM FEW080 SCT150
     FM240200 25006KT P6SM SCT150=



000
FTUS45 KSLC 231120
TAFENV
TAF
KENV 231120Z 2312/2412 VRB05KT P6SM BKN100
     FM231600 11007KT P6SM VCSH SCT070 BKN100
     FM240200 32010G16KT P6SM FEW070 BKN100
      AMD LTD TO CLD VIS AND WIND=



000
FTUS45 KSLC 230853 AAA
TAFSLC
TAF AMD
KSLC 230853Z 2309/2412 15007KT P6SM SCT100 BKN150
     FM231900 33008KT P6SM SCT080 BKN110
     FM240400 16007KT P6SM SCT090 BKN120=



000
FTUS45 KSLC 230535
TAFPVU
TAF
KPVU 230535Z 2306/2406 VRB05KT P6SM SCT100 BKN150
     FM232000 29006KT P6SM SCT080 BKN120
     FM240400 VRB04KT P6SM SCT090 BKN120
      AMD LTD TO CLD VIS AND WIND=



000
FTUS45 KSLC 230535
TAFOGD
TAF
KOGD 230535Z 2306/2406 16007KT P6SM SCT100 BKN150
     FM231900 28007KT P6SM SCT070 BKN110
     FM240200 16007KT P6SM SCT090 BKN120=



000
FTUS45 KSLC 230535
TAFBCE
TAF
KBCE 230535Z 2306/2406 27007KT P6SM SCT150
     FM231700 16010G17KT P6SM FEW080 SCT150=



000
FTUS45 KSLC 230535
TAFSLC
TAF
KSLC 230535Z 2306/2412 15007KT P6SM SCT100 BKN150
     FM231900 33008KT P6SM SCT080 BKN110
     FM240400 16007KT P6SM SCT090 BKN120=



000
FTUS45 KSLC 230535
TAFENV
TAF
KENV 230535Z 2306/2406 02011G17KT P6SM SCT100
     FM230800 VRB05KT P6SM SCT100
     FM231600 11007KT P6SM VCSH SCT070 BKN100
      AMD LTD TO CLD VIS AND WIND=



000
FTUS45 KSLC 230535
TAFLGU
TAF
KLGU 230535Z 2306/2406 VRB05KT P6SM FEW060 SCT120
     FM231800 VRB05KT P6SM VCSH SCT070 BKN100
     FM240300 VRB04KT P6SM SCT090 BKN120=



000
FTUS45 KSLC 230535
TAFCDC
TAF
KCDC 230535Z 2306/2406 18005KT P6SM FEW120 SCT200
     FM231800 22010G17KT P6SM FEW090 SCT200
     FM240200 19007KT P6SM SCT200=



000
FTUS45 KSLC 230535
TAFSGU
TAF
KSGU 230535Z 2306/2406 VRB04KT P6SM SCT200
     FM232000 24008KT P6SM SCT200
      AMD LTD TO CLD VIS AND WIND=



000
FTUS45 KSLC 230458 AAA
TAFENV
TAF AMD
KENV 230458Z 2305/2324 02011G17KT P6SM SCT100
     FM230800 VRB05KT P6SM SCT100
     FM231500 12007KT P6SM SCT100
      AMD LTD TO CLD VIS AND WIND=



000
FTUS45 KSLC 230406 AAB
TAFLGU
TAF AMD
KLGU 230406Z 2304/2324 08009KT P6SM VCSH BKN030 OVC060
     FM230500 VRB04KT P6SM SCT060 SCT120
     FM231800 VRB05KT P6SM SCT100 BKN120=



000
FTUS45 KSLC 230003 AAA
TAFLGU
TAF AMD
KLGU 230003Z 2300/2324 17010KT P6SM VCSH SCT100 BKN120
     FM230045 VRB25G35KT P6SM -TSRA SCT050CB BKN070
     FM230230 VRB04KT P6SM SCT120
     FM231800 VRB05KT P6SM SCT100 BKN120=



000
FTUS45 KSLC 222011 AAC
TAFSLC
TAF AMD
KSLC 222011Z 2220/2324 15012KT P6SM -SHRA SCT040 BKN070 OVC090
     FM222200 35008KT P6SM SCT050 BKN080
     FM230000 36008KT P6SM SCT080 BKN120
     FM230400 15005KT P6SM FEW120=



000
FTUS45 KSLC 221924 AAC
TAFSLC
TAF AMD
KSLC 221924Z 2219/2324 26015G25KT P6SM -TSRA SCT040CB BKN060 OVC090
     FM222000 32007KT P6SM -SHRA SCT050 BKN080
     FM222200 35008KT P6SM SCT050 BKN080
     FM230000 36008KT P6SM SCT080 BKN120
     FM230400 15005KT P6SM FEW120=



000
FTUS45 KSLC 221750 AAA
TAFLGU
TAF AMD
KLGU 221750Z 2218/2318 VRB05KT P6SM VCSH SCT100 BKN120
     FM222100 VRB04KT P6SM SCT100 BKN120=



000
FTUS45 KSLC 221720
TAFPVU
TAF
KPVU 221720Z 2218/2318 31009KT P6SM -SHRA SCT060 BKN100
     FM222200 30010KT P6SM SCT070 BKN100
     FM230300 VRB05KT P6SM SKC
      AMD LTD TO CLD VIS AND WIND=



000
FTUS45 KSLC 221720
TAFOGD
TAF
KOGD 221720Z 2218/2318 27007KT P6SM VCSH SCT070 BKN100
     FM230300 16007KT P6SM SKC=



000
FTUS45 KSLC 221720
TAFSGU
TAF
KSGU 221720Z 2218/2318 VRB05KT P6SM SKC
     FM222000 25010KT P6SM SKC
     FM230500 VRB04KT P6SM SKC
      AMD LTD TO CLD VIS AND WIND=



000
FTUS45 KSLC 221720
TAFSLC
TAF
KSLC 221720Z 2218/2324 32003KT P6SM -SHRA SCT040 BKN070 OVC090
     FM222000 32007KT P6SM -SHRA SCT050 BKN080
     FM222200 35008KT P6SM SCT050 BKN080
     FM230000 36008KT P6SM SCT080 BKN120
     FM230400 15005KT P6SM FEW120=



000
FTUS45 KSLC 221720
TAFBCE
TAF
KBCE 221720Z 2218/2318 24014G20KT P6SM SCT070
     FM222200 27010G16KT P6SM SKC
     FM230100 27005KT P6SM SKC=



000
FTUS45 KSLC 221720
TAFLGU
TAF
KLGU 221720Z 2218/2318 VRB05KT P6SM SCT100 BKN120=



000
FTUS45 KSLC 221720
TAFENV
TAF
KENV 221720Z 2218/2318 15009KT P6SM VCSH SCT080 BKN100
     FM222200 22007KT P6SM SCT100
     FM230200 VRB05KT P6SM SKC
      AMD LTD TO CLD VIS AND WIND=



000
FTUS45 KSLC 221720
TAFCDC
TAF
KCDC 221720Z 2218/2318 20012G20KT P6SM FEW080
     FM222000 24010KT P6SM SKC
     FM230300 18005KT P6SM SKC=



000
FTUS45 KSLC 221120
TAFCDC
TAF
KCDC 221120Z 2212/2312 19006KT P6SM SKC
     FM221600 22012G20KT P6SM FEW080
     FM222000 24010KT P6SM SKC
     FM230300 18005KT P6SM SKC=



000
FTUS45 KSLC 221120
TAFENV
TAF
KENV 221120Z 2212/2312 VRB05KT P6SM BKN100
     FM221800 14009KT P6SM SCT080 BKN100
     FM230200 VRB05KT P6SM SKC
      AMD LTD TO CLD VIS AND WIND=



000
FTUS45 KSLC 221120
TAFOGD
TAF
KOGD 221120Z 2212/2312 17005KT P6SM SCT100
     FM221600 24005KT P6SM VCSH BKN060 BKN100
     FM221800 27007KT P6SM -SHRA BKN040 BKN070
     FM222200 29007KT P6SM SCT060 BKN090
     FM230300 16007KT P6SM SKC=



000
FTUS45 KSLC 221120
TAFLGU
TAF
KLGU 221120Z 2212/2312 33006KT P6SM SCT070 BKN100
     FM221800 27009KT P6SM VCSH BKN050 BKN080
     FM230100 VRB03KT P6SM BKN100=



000
FTUS45 KSLC 221120
TAFSLC
TAF
KSLC 221120Z 2212/2318 15005KT P6SM BKN080 BKN120
     FM221500 27008KT P6SM -SHRA BKN040 OVC070
     FM222000 32007KT P6SM VCSH SCT050 BKN080
     FM230000 36008KT P6SM SCT080 BKN120
     FM230400 15005KT P6SM FEW120=



000
FTUS45 KSLC 221120
TAFSGU
TAF
KSGU 221120Z 2212/2312 VRB05KT P6SM SKC
     FM222000 25010KT P6SM SKC
     FM230500 VRB04KT P6SM SKC
      AMD LTD TO CLD VIS AND WIND=



000
FTUS45 KSLC 221120
TAFBCE
TAF
KBCE 221120Z 2212/2312 14007KT P6SM SKC
     FM221600 22014G20KT P6SM SCT070
     FM222200 27010G16KT P6SM SKC
     FM230100 27005KT P6SM SKC=



000
FTUS45 KSLC 221120
TAFPVU
TAF
KPVU 221120Z 2212/2312 VRB05KT P6SM SKC
     FM221800 25009KT P6SM VCSH BKN060 BKN100
     FM222200 30010KT P6SM SCT070 BKN100
     FM230300 VRB05KT P6SM SKC
      AMD LTD TO CLD VIS AND WIND=



000
FTUS45 KSLC 221000 AAB
TAFSLC
TAF AMD
KSLC 221000Z 2210/2312 15005KT P6SM BKN080 BKN120
     FM221500 27008KT P6SM -SHRA BKN040 OVC080
     FM221900 32007KT P6SM VCSH SCT050 BKN080
     FM230000 36008KT P6SM SCT080
     FM230400 15004KT P6SM SKC=



000
FTUS45 KSLC 220814 AAA
TAFPVU
TAF AMD
KPVU 220814Z 2208/2306 31010G17KT P6SM SKC
     FM221000 VRB05KT P6SM FEW100
     FM221800 25009KT P6SM VCSH BKN060 BKN100
     FM222100 30010KT P6SM SCT070 BKN100
     FM230300 VRB05KT P6SM SKC
      AMD LTD TO CLD VIS AND WIND=



000
FTUS45 KSLC 220525
TAFPVU
TAF
KPVU 220525Z 2206/2306 31010KT P6SM SCT120
     FM221000 VRB04KT P6SM SCT100
     FM221800 25009KT P6SM VCSH BKN060 BKN100
     FM222100 30010KT P6SM SCT070 BKN100
     FM230300 VRB05KT P6SM SKC
      AMD LTD TO CLD VIS AND WIND=



000
FTUS45 KSLC 220525
TAFSGU
TAF
KSGU 220525Z 2206/2306 VRB05KT P6SM SKC
     FM222000 25010KT P6SM SKC
     FM230500 VRB04KT P6SM SKC
      AMD LTD TO CLD VIS AND WIND=



000
FTUS45 KSLC 220525
TAFSLC
TAF
KSLC 220525Z 2206/2312 30006KT P6SM SCT120
     FM220800 15005KT P6SM SCT080 BKN120
     FM221500 27008KT P6SM -SHRA BKN050 OVC080
     FM221900 32007KT P6SM VCSH SCT050 BKN080
     FM230000 36008KT P6SM SCT080
     FM230400 15004KT P6SM SKC=



000
FTUS45 KSLC 220330 AAA
TAFSGU
TAF AMD
KSGU 220330Z 2204/2224 VRB05KT P6SM SKC
     FM221900 25010KT P6SM SCT100
      AMD LTD TO CLD VIS AND WIND=



000
FTUS45 KSLC 220329 AAB
TAFPVU
TAF AMD
KPVU 220329Z 2203/2224 32014G22KT P6SM SCT120
     FM220500 31010KT P6SM SCT120
     FM221000 VRB04KT P6SM SCT100
     FM221800 VRB04KT P6SM VCSH SCT060 BKN100
      AMD LTD TO CLD VIS AND WIND=



000
FTUS45 KSLC 212329
TAFLGU
TAF
KLGU 212329Z 2200/2224 20008KT P6SM VCSH SCT050 BKN100
     FM220100 VRB04KT P6SM SCT100
     FM221800 VRB05KT P6SM VCSH SCT060 BKN100=



000
FTUS45 KSLC 212329
TAFENV
TAF
KENV 212329Z 2200/2224 34014G20KT P6SM SCT100
     FM220400 VRB05KT P6SM SCT100
     FM221800 14009KT P6SM SCT080 BKN100
      AMD LTD TO CLD VIS AND WIND=



000
FTUS45 KSLC 212329
TAFSLC
TAF
KSLC 212329Z 2200/2306 35011KT P6SM VCSH SCT080 BKN100
     FM220100 34010KT P6SM SCT080 BKN100
     FM220800 15004KT P6SM SCT100
     FM221700 32007KT P6SM VCSH SCT060 BKN100=



000
FTUS45 KSLC 212329
TAFOGD
TAF
KOGD 212329Z 2200/2224 35010KT P6SM VCSH SCT060 BKN100
     FM220100 30010KT P6SM BKN100
     FM221000 17005KT P6SM SCT100
     FM221800 24005KT P6SM VCSH SCT060 BKN100=



000
FTUS45 KSLC 212329
TAFCDC
TAF
KCDC 212329Z 2200/2224 21022G32KT P6SM SCT100 BKN120
     FM220100 22012G18KT P6SM FEW150
     FM220300 22006KT P6SM SKC
     FM221800 24012G22KT P6SM SCT100=



000
FTUS45 KSLC 212329
TAFPVU
TAF
KPVU 212329Z 2200/2224 19010KT P6SM VCSH FEW060 BKN100
     FM220100 29010KT P6SM BKN100
     FM221200 VRB04KT P6SM SCT100
     FM221800 VRB04KT P6SM VCSH SCT060 BKN100
      AMD LTD TO CLD VIS AND WIND=



000
FTUS45 KSLC 212329
TAFSGU
TAF
KSGU 212329Z 2200/2224 22012G26KT P6SM SKC
     FM220100 26015KT P6SM SKC
     FM220500 VRB05KT P6SM SKC
     FM221900 25010KT P6SM SCT100
      AMD LTD TO CLD VIS AND WIND=



000
FTUS45 KSLC 212329
TAFBCE
TAF
KBCE 212329Z 2200/2224 20022G32KT P6SM SCT070 BKN100
     FM220100 23011G18KT P6SM SCT120
     FM220300 23007KT P6SM SCT120
     FM221800 22012G17KT P6SM SCT080 BKN120=



000
FTUS45 KSLC 212215 AAC
TAFLGU
TAF AMD
KLGU 212215Z 2122/2218 20008KT P6SM VCSH SCT050 BKN100
     FM220100 VRB04KT P6SM SCT100=



000
FTUS45 KSLC 212030 AAD
TAFSLC
TAF AMD
KSLC 212030Z 2120/2224 29011KT P6SM VCSH SCT080 BKN100
     FM220100 34010KT P6SM SCT080 BKN100
     FM220500 15004KT P6SM SCT100=



000
FTUS45 KSLC 212010 AAB
TAFSGU
TAF AMD
KSGU 212010Z 2120/2218 21014G29KT P6SM SKC
     FM220100 26015KT P6SM SKC
     FM220500 VRB05KT P6SM SKC
      AMD LTD TO CLD VIS AND WIND=



000
FTUS45 KSLC 211918 AAA
TAFBCE
TAF AMD
KBCE 211918Z 2119/2218 19022G32KT P6SM SCT070 BKN100
     FM220100 23011G18KT P6SM SCT140
     FM220300 23007KT P6SM SKC=



000
FTUS45 KSLC 211918 AAA
TAFSGU
TAF AMD
KSGU 211918Z 2119/2218 21011G19KT P6SM SKC
     FM220100 26015KT P6SM SKC
     FM220500 VRB05KT P6SM SKC
      AMD LTD TO CLD VIS AND WIND=



000
FTUS45 KSLC 211917 AAA
TAFLGU
TAF AMD
KLGU 211917Z 2119/2218 19014KT P6SM SCT060 SCT100
     FM212000 29012G19KT P6SM VCSH SCT050 BKN100
     FM220100 VRB04KT P6SM SCT100=



000
FTUS45 KSLC 211917 AAB
TAFOGD
TAF AMD
KOGD 211917Z 2119/2218 17018G28KT P6SM VCSH SCT040 BKN080
     FM212100 27010KT P6SM VCSH SCT060 BKN100
     FM220100 30010KT P6SM BKN100
     FM220500 17005KT P6SM SCT100=



000
FTUS45 KSLC 211916 AAA
TAFENV
TAF AMD
KENV 211916Z 2119/2218 28014G20KT P6SM SCT100
     FM220400 VRB05KT P6SM SCT100
      AMD LTD TO CLD VIS AND WIND=



000
FTUS45 KSLC 211900 AAA
TAFOGD
TAF AMD
KOGD 211900Z 2119/2218 VRB25G35KT P6SM -TSRA BKN040CB BKN080
     FM212000 17018G28KT P6SM VCSH SCT040 BKN080
     FM212100 27010KT P6SM VCSH SCT060 BKN100
     FM220100 30010KT P6SM BKN100
     FM220500 17005KT P6SM SCT100=



000
FTUS45 KSLC 211634 AAC
TAFPVU
TAF AMD
KPVU 211634Z 2117/2212 VRB05KT P6SM -SHRA SCT030 BKN060
     FM211705 22016G26KT P6SM BKN060 BKN100
     FM212200 26013G22KT P6SM FEW060 BKN100
     FM220100 29010KT P6SM BKN140
      AMD LTD TO CLD VIS AND WIND=



000
FTUS45 KSLC 211633 AAD
TAFSLC
TAF AMD
KSLC 211633Z 2117/2218 12015KT P6SM SCT060 BKN080
     FM212100 29011KT P6SM SCT090
     FM220100 34010KT P6SM SCT100 BKN140
     FM220500 15004KT P6SM FEW100 BKN140=



    US Dept of Commerce
    National Oceanic and Atmospheric Administration
    National Weather Service
    1325 East West Highway
    Silver Spring, MD 20910
    Page Author: NWS Internet Services Team
Disclaimer
Information Quality
Credits
Glossary
Privacy Policy
Freedom of Information Act (FOIA)
About Us
Career Opportunities